Time;durP1;ratioP1;P1;durP2;ratioP2;P2;SDS_P1;SDS_P2;PMS_P1;PMS_P2;Temp;Humidity;BMP_temperature;BMP_pressure;BME280_temperature;BME280_humidity;BME280_pressure;Samples;Min_cycle;Max_cycle;Signal;HPM_P1;HPM_P2
2021/03/23 00:01:43;;;;;;;10.27;7.10;;;;;;;5.53;81.06;99495.59;5090636;27;106941;-88
2021/03/23 00:04:13;;;;;;;8.40;6.77;;;;;;;5.53;81.02;99498.22;5093545;27;102609;-88
2021/03/23 00:06:40;;;;;;;10.40;7.10;;;;;;;5.57;80.89;99497.16;5090617;27;102989;-87
2021/03/23 00:09:08;;;;;;;9.83;6.60;;;;;;;5.60;80.76;99494.41;5096173;27;104332;-88
2021/03/23 00:11:57;;;;;;;7.33;5.57;;;;;;;5.62;80.50;99497.81;4967863;28;102782;-92
2021/03/23 00:14:24;;;;;;;10.07;7.00;;;;;;;5.64;80.28;99496.03;4973730;28;101645;-92
2021/03/23 00:16:54;;;;;;;7.40;6.00;;;;;;;5.60;80.98;99489.19;4972041;28;101790;-92
2021/03/23 00:19:22;;;;;;;9.70;7.87;;;;;;;5.60;80.94;99499.66;4970026;28;104114;-92
2021/03/23 00:21:50;;;;;;;8.67;5.27;;;;;;;5.63;80.85;99496.91;4971250;28;102465;-92
2021/03/23 00:24:17;;;;;;;6.77;5.43;;;;;;;5.60;80.66;99489.19;4973143;28;101536;-94
2021/03/23 00:26:45;;;;;;;12.53;7.80;;;;;;;5.62;80.64;99497.81;4973004;28;101702;-92
2021/03/23 00:29:12;;;;;;;6.80;5.43;;;;;;;5.63;80.85;99499.53;5018475;22;102520;-92
2021/03/23 00:31:41;;;;;;;7.57;5.43;;;;;;;5.62;80.97;99497.81;5033889;28;102400;-93
2021/03/23 00:34:10;;;;;;;10.90;7.60;;;;;;;5.49;80.69;99494.00;5030477;28;101759;-91
2021/03/23 00:36:40;;;;;;;9.03;7.00;;;;;;;5.62;80.62;99503.06;5032019;28;102208;-91
2021/03/23 00:39:10;;;;;;;12.53;8.77;;;;;;;5.42;80.75;99492.53;5032198;28;102734;-92
2021/03/23 00:41:40;;;;;;;12.63;7.23;;;;;;;5.49;81.02;99496.63;5031992;27;102416;-92
2021/03/23 00:44:10;;;;;;;10.57;7.20;;;;;;;5.57;80.59;99497.16;5024687;28;101706;-92
2021/03/23 00:46:38;;;;;;;10.20;7.00;;;;;;;5.62;80.61;99497.81;5031587;28;101772;-92
2021/03/23 00:49:08;;;;;;;12.50;7.80;;;;;;;5.56;80.72;99490.19;5038845;27;102632;-93
2021/03/23 00:51:37;;;;;;;10.30;7.80;;;;;;;5.57;80.89;99494.53;5052797;28;102409;-92
2021/03/23 00:54:12;;;;;;;11.00;8.10;;;;;;;5.49;80.94;99480.88;5037557;28;101713;-92
2021/03/23 00:56:39;;;;;;;11.30;6.57;;;;;;;5.44;81.32;99483.69;5039015;27;101781;-92
2021/03/23 00:59:07;;;;;;;10.03;7.20;;;;;;;5.49;81.09;99486.97;5040566;28;102600;-92
2021/03/23 01:01:34;;;;;;;9.17;6.20;;;;;;;5.56;80.99;99498.06;5035649;27;103247;-91
2021/03/23 01:04:21;;;;;;;8.20;5.83;;;;;;;5.42;81.46;99490.75;5018670;28;101641;-91
2021/03/23 01:06:51;;;;;;;11.77;8.73;;;;;;;5.33;81.99;99485.03;5035288;28;101730;-92
2021/03/23 01:09:23;;;;;;;9.90;7.10;;;;;;;5.43;82.34;99491.59;5024130;28;102602;-91
2021/03/23 01:11:52;;;;;;;10.40;7.03;;;;;;;5.43;82.39;99486.38;5044396;28;102490;-92
2021/03/23 01:14:20;;;;;;;11.37;8.07;;;;;;;5.47;82.00;99493.22;5034538;28;102145;-92
2021/03/23 01:16:48;;;;;;;10.47;6.83;;;;;;;5.47;82.39;99488.81;5035140;28;101696;-92
2021/03/23 01:19:16;;;;;;;12.03;7.57;;;;;;;5.47;82.16;99499.31;5016560;28;102612;-93
2021/03/23 01:21:43;;;;;;;11.00;8.07;;;;;;;5.49;82.04;99494.84;5035535;28;102504;-92
2021/03/23 01:24:14;;;;;;;9.80;6.70;;;;;;;5.48;82.31;99487.03;5052035;28;101689;-93
2021/03/23 01:26:41;;;;;;;11.20;8.63;;;;;;;5.50;82.08;99485.22;5041223;28;101852;-92
2021/03/23 01:29:09;;;;;;;10.07;7.20;;;;;;;5.51;82.33;99494.78;5033009;28;102605;-91
2021/03/23 01:31:47;;;;;;;8.80;6.20;;;;;;;5.49;81.80;99489.59;5147185;22;105796;-87
2021/03/23 01:37:28;;;;;;;11.00;7.73;;;;;;;5.41;82.90;99488.19;4936861;23;103672;-91
2021/03/23 01:40:00;;;;;;;17.60;10.33;;;;;;;5.47;82.45;99488.81;4898354;23;102778;-91
2021/03/23 01:42:39;;;;;;;12.50;9.10;;;;;;;5.52;82.60;99493.88;4825013;29;102577;-92
2021/03/23 01:51:18;;;;;;;15.80;10.63;;;;;;;5.42;83.63;99489.91;5620423;23;104984;31
2021/03/23 01:56:58;;;;;;;10.60;7.55;;;;;;;5.43;83.77;99483.75;5275375;23;105344;-90
2021/03/23 01:59:36;;;;;;;13.37;9.13;;;;;;;5.48;82.99;99479.16;4141476;23;105216;-88
2021/03/23 02:02:04;;;;;;;18.07;13.07;;;;;;;5.41;83.93;99485.56;4931307;23;104095;-91
2021/03/23 02:04:33;;;;;;;12.90;10.47;;;;;;;5.41;83.76;99478.56;5108727;23;103282;-92
2021/03/23 02:07:04;;;;;;;19.27;12.97;;;;;;;5.39;84.03;99479.56;4984240;23;104305;-92
2021/03/23 02:09:36;;;;;;;17.27;11.73;;;;;;;5.39;83.31;99479.56;4901070;28;101724;-92
2021/03/23 02:12:07;;;;;;;16.80;12.00;;;;;;;5.42;83.65;99477.63;4916774;28;102667;-91
2021/03/23 02:14:39;;;;;;;16.97;10.93;;;;;;;5.47;83.23;99472.25;4915039;28;102443;-91
2021/03/23 02:17:18;;;;;;;15.63;11.60;;;;;;;5.44;83.98;99480.22;4907132;28;101616;-92
2021/03/23 02:19:48;;;;;;;20.73;14.07;;;;;;;5.32;84.17;99467.59;4915527;28;101759;-90
2021/03/23 02:22:25;;;;;;;16.97;11.30;;;;;;;5.36;84.33;99475.25;4916709;28;102547;-92
2021/03/23 02:24:54;;;;;;;14.47;10.90;;;;;;;5.28;84.57;99471.25;4916544;28;102492;-91
2021/03/23 02:27:24;;;;;;;18.03;11.67;;;;;;;5.36;83.91;99470.00;4916755;28;101648;-92
2021/03/23 02:29:54;;;;;;;18.27;12.33;;;;;;;5.36;83.83;99479.66;4900543;28;101829;-92
2021/03/23 02:32:21;;;;;;;18.80;12.80;;;;;;;5.38;84.44;99470.84;5005253;23;103418;-92
2021/03/23 02:34:50;;;;;;;18.60;14.33;;;;;;;5.41;84.06;99472.47;4897578;28;102476;-91
2021/03/23 02:37:18;;;;;;;17.77;13.07;;;;;;;5.46;83.77;99475.75;4898160;28;101709;-91
2021/03/23 02:39:46;;;;;;;16.73;12.93;;;;;;;5.44;83.65;99475.84;4943744;23;101786;-87
2021/03/23 02:42:15;;;;;;;19.97;12.70;;;;;;;5.41;84.07;99467.22;4891055;28;103626;-92
2021/03/23 02:44:45;;;;;;;17.60;13.33;;;;;;;5.40;84.07;99476.00;4882093;28;102464;-93
2021/03/23 02:47:15;;;;;;;16.57;11.40;;;;;;;5.48;83.94;99479.16;4906575;28;101775;-91
2021/03/23 02:49:42;;;;;;;14.57;11.70;;;;;;;5.40;84.36;99478.63;4898344;28;102382;-93
2021/03/23 02:52:12;;;;;;;20.67;13.67;;;;;;;5.42;84.34;99474.19;5093643;23;104033;-91
2021/03/23 02:54:40;;;;;;;19.63;13.40;;;;;;;5.40;84.28;99473.38;5320366;23;104552;-91
2021/03/23 03:03:29;;;;;;;19.03;13.00;;;;;;;5.34;84.25;99460.50;5506817;23;104769;-92
2021/03/23 03:05:59;;;;;;;23.37;15.07;;;;;;;5.32;84.25;99467.59;5125578;23;104829;-91
2021/03/23 03:08:27;;;;;;;19.97;12.83;;;;;;;5.35;83.69;99468.31;5395370;23;104232;-92
2021/03/23 03:10:56;;;;;;;18.97;12.50;;;;;;;5.40;83.57;99462.91;4917053;28;101794;-90
2021/03/23 03:13:25;;;;;;;16.60;13.50;;;;;;;5.25;84.55;99446.84;4916721;28;105997;-91
2021/03/23 03:15:55;;;;;;;18.33;13.70;;;;;;;5.30;84.19;99454.56;4913826;28;102502;-92
2021/03/23 03:18:25;;;;;;;17.80;12.43;;;;;;;5.39;84.29;99459.41;4916926;28;101686;-92
2021/03/23 03:23:51;;;;;;;21.53;14.30;;;;;;;5.30;84.37;99462.41;5554659;23;105742;-91
2021/03/23 03:26:20;;;;;;;15.33;10.90;;;;;;;5.35;84.21;99463.09;4891161;28;102418;-92
2021/03/23 03:28:51;;;;;;;16.97;12.13;;;;;;;5.42;83.46;99475.03;4878889;28;101738;-91
2021/03/23 03:31:21;;;;;;;14.70;10.57;;;;;;;5.41;83.48;99467.22;4845382;29;101878;-93
2021/03/23 03:33:51;;;;;;;14.67;10.67;;;;;;;5.45;83.56;99464.41;4880986;28;102698;-92
2021/03/23 03:36:21;;;;;;;16.43;12.13;;;;;;;5.42;83.43;99468.94;4895918;28;102507;-93
2021/03/23 03:38:48;;;;;;;14.33;10.47;;;;;;;5.39;83.86;99466.44;4888693;28;101943;-93
2021/03/23 03:41:17;;;;;;;16.20;11.23;;;;;;;5.43;84.17;99468.03;4898538;28;101801;-92
2021/03/23 03:43:44;;;;;;;20.33;15.27;;;;;;;5.39;83.68;99463.81;4885373;28;102643;-92
2021/03/23 03:46:12;;;;;;;13.63;10.57;;;;;;;5.42;83.85;99464.53;4879649;28;102578;-93
2021/03/23 03:48:40;;;;;;;13.93;9.93;;;;;;;5.44;83.54;99457.50;4895461;28;101628;-91
2021/03/23 03:51:08;;;;;;;12.80;10.33;;;;;;;5.48;83.48;99464.31;4911020;28;101829;-92
2021/03/23 03:53:36;;;;;;;14.30;10.37;;;;;;;5.37;83.57;99458.63;4914376;28;102668;-92
2021/03/23 03:56:04;;;;;;;18.57;14.47;;;;;;;5.34;83.44;99460.50;4984962;23;103450;-93
2021/03/23 03:58:34;;;;;;;15.00;11.40;;;;;;;5.38;83.67;99462.13;4915255;28;101601;-91
2021/03/23 04:01:02;;;;;;;19.37;13.57;;;;;;;5.39;83.31;99469.06;4923016;28;101771;-91
2021/03/23 04:06:34;;;;;;;17.63;12.67;;;;;;;5.37;83.87;99470.88;5665261;23;106165;-92
2021/03/23 04:09:03;;;;;;;17.60;12.10;;;;;;;5.32;83.90;99475.44;5113551;23;105601;-91
2021/03/23 04:14:38;;;;;;;14.80;11.17;;;;;;;5.33;84.16;99474.53;5171659;23;103262;-93
2021/03/23 04:20:12;;;;;;;18.30;12.50;;;;;;;5.33;83.37;99474.53;4472710;26;102340;-90
2021/03/23 04:22:42;;;;;;;17.93;13.43;;;;;;;5.32;83.93;99478.06;5117765;23;103463;-91
2021/03/23 04:25:10;;;;;;;14.17;10.00;;;;;;;5.37;83.44;99483.97;4932796;28;102536;-82
2021/03/23 04:27:38;;;;;;;23.87;15.57;;;;;;;5.28;84.14;99485.19;4926374;28;104426;-77
2021/03/23 04:30:08;;;;;;;17.73;11.97;;;;;;;5.33;84.16;99482.41;4925087;28;102563;-77
2021/03/23 04:32:36;;;;;;;14.47;11.07;;;;;;;5.33;83.88;99485.88;4932470;28;102851;-77
2021/03/23 04:35:07;;;;;;;17.87;11.97;;;;;;;5.38;83.62;99485.69;4932030;28;105665;-78
2021/03/23 04:37:34;;;;;;;15.30;10.13;;;;;;;5.34;84.53;99491.94;4931224;28;103874;-77
2021/03/23 04:40:02;;;;;;;20.43;14.23;;;;;;;5.34;83.83;99494.56;4932479;28;102896;-78
2021/03/23 04:42:29;;;;;;;17.10;12.73;;;;;;;5.31;84.22;99492.94;4921383;28;103004;-88
2021/03/23 04:44:56;;;;;;;15.47;11.60;;;;;;;5.33;84.09;99495.50;4930389;28;102768;-90
2021/03/23 04:47:23;;;;;;;17.93;12.17;;;;;;;5.37;83.89;99499.69;4930040;28;103744;-86
2021/03/23 04:49:51;;;;;;;16.17;12.33;;;;;;;5.34;83.80;99505.91;4924869;28;102955;-91
2021/03/23 04:52:18;;;;;;;15.20;11.77;;;;;;;5.33;84.18;99506.84;4927751;28;102539;-88
2021/03/23 04:54:45;;;;;;;21.77;14.87;;;;;;;5.26;84.10;99503.59;4936125;28;102697;-82
2021/03/23 04:57:12;;;;;;;17.03;13.13;;;;;;;5.26;83.97;99503.59;4929946;28;103838;-88
2021/03/23 04:59:39;;;;;;;17.87;12.87;;;;;;;5.28;84.17;99507.00;4937045;28;103269;-91
2021/03/23 05:02:06;;;;;;;18.83;13.43;;;;;;;5.32;83.70;99505.13;4927204;28;103001;-90
2021/03/23 05:04:34;;;;;;;14.83;10.87;;;;;;;5.33;84.33;99519.09;4933124;28;103269;-92
2021/03/23 05:07:09;;;;;;;21.97;16.07;;;;;;;5.16;84.59;99511.88;4937685;28;103037;-91
2021/03/23 05:09:36;;;;;;;22.50;14.30;;;;;;;5.24;84.33;99512.44;4930902;28;101703;-91
2021/03/23 05:12:03;;;;;;;17.67;12.23;;;;;;;5.30;84.09;99509.59;4936523;28;101753;-92
2021/03/23 05:14:30;;;;;;;19.07;12.33;;;;;;;5.25;84.63;99519.38;4921181;28;103334;-91
2021/03/23 05:16:57;;;;;;;20.33;14.90;;;;;;;5.23;84.47;99516.81;4927763;28;102850;-91
2021/03/23 05:19:24;;;;;;;19.20;12.30;;;;;;;5.28;84.53;99507.94;4936467;28;101650;-91
2021/03/23 05:21:52;;;;;;;19.47;13.43;;;;;;;5.34;84.17;99518.16;4936005;28;102306;-91
2021/03/23 05:24:19;;;;;;;14.20;11.30;;;;;;;5.33;84.06;99516.47;4935362;28;102351;-91
2021/03/23 05:26:46;;;;;;;15.80;11.10;;;;;;;5.34;84.31;99512.91;4935327;28;103860;-90
2021/03/23 05:29:13;;;;;;;14.07;10.70;;;;;;;5.28;84.98;99513.19;4937029;28;103705;-82
2021/03/23 05:31:40;;;;;;;17.70;12.17;;;;;;;5.36;84.76;99516.34;4935123;28;102417;-89
2021/03/23 05:34:07;;;;;;;18.80;13.30;;;;;;;5.26;84.85;99521.09;4933430;28;103925;-87
2021/03/23 05:36:34;;;;;;;15.17;10.97;;;;;;;5.34;84.14;99524.25;4931800;28;103409;-86
2021/03/23 05:39:03;;;;;;;22.13;14.40;;;;;;;5.29;84.33;99523.59;4923020;28;102632;-92
2021/03/23 05:41:41;;;;;;;15.77;11.03;;;;;;;5.33;84.41;99522.56;4925562;28;102566;-85
2021/03/23 05:44:20;;;;;;;15.00;11.07;;;;;;;5.42;83.97;99529.22;4927372;28;103124;-80
2021/03/23 05:46:48;;;;;;;17.77;12.40;;;;;;;5.44;83.94;99524.78;4933191;28;103781;-91
2021/03/23 05:49:31;;;;;;;17.90;11.87;;;;;;;5.33;85.46;99532.19;4925869;28;103028;-89
2021/03/23 05:52:04;;;;;;;18.80;12.53;;;;;;;5.44;85.09;99532.63;4931965;28;102824;-87
2021/03/23 05:54:40;;;;;;;17.40;12.10;;;;;;;5.47;84.42;99532.53;4930056;28;105190;-87
2021/03/23 05:57:17;;;;;;;25.30;16.20;;;;;;;5.23;85.14;99535.16;4928233;28;103054;-82
2021/03/23 05:59:49;;;;;;;17.63;12.43;;;;;;;5.25;85.22;99541.19;4920202;28;103028;-81
2021/03/23 06:02:24;;;;;;;25.13;15.40;;;;;;;5.33;84.66;99542.69;4929366;28;103003;-90
2021/03/23 06:05:02;;;;;;;21.77;14.57;;;;;;;5.37;84.69;99544.25;4929278;28;104994;-90
2021/03/23 06:07:36;;;;;;;26.93;16.67;;;;;;;5.31;84.36;99532.22;4928117;28;102694;-90
2021/03/23 06:10:16;;;;;;;16.93;12.30;;;;;;;5.42;84.72;99539.72;4928259;28;102313;-86
2021/03/23 06:12:50;;;;;;;23.63;15.47;;;;;;;5.33;84.25;99542.69;4932116;28;102340;-90
2021/03/23 06:15:26;;;;;;;19.30;12.60;;;;;;;5.38;84.73;99545.97;4929181;28;102797;-87
2021/03/23 06:18:03;;;;;;;15.33;11.80;;;;;;;5.52;84.11;99544.53;5232501;23;104333;-91
2021/03/23 06:20:45;;;;;;;22.10;14.33;;;;;;;5.41;84.98;99557.19;5052614;23;101989;-88
2021/03/23 06:24:01;;;;;;;19.13;12.77;;;;;;;5.41;84.89;99551.97;4885296;28;102745;-92
2021/03/23 06:26:46;;;;;;;23.80;15.20;;;;;;;5.53;84.08;99561.13;4892586;28;104621;-92
2021/03/23 06:29:29;;;;;;;21.43;13.60;;;;;;;5.59;84.55;99571.34;4893500;28;102660;-89
2021/03/23 06:32:16;;;;;;;17.70;12.00;;;;;;;5.71;84.16;99565.63;4889533;28;102471;-87
2021/03/23 06:34:43;;;;;;;16.13;11.37;;;;;;;5.80;84.24;99565.28;4889605;28;102602;-88
2021/03/23 06:37:22;;;;;;;17.80;12.10;;;;;;;5.73;84.35;99569.91;4893229;28;103190;-89
2021/03/23 06:39:50;;;;;;;19.17;13.37;;;;;;;5.86;84.10;99580.81;4891734;28;104359;-88
2021/03/23 06:42:35;;;;;;;19.80;13.40;;;;;;;5.83;84.02;99567.78;4889155;28;102283;-88
2021/03/23 06:45:21;;;;;;;21.27;14.23;;;;;;;5.86;83.52;99570.31;4891455;28;104442;-80
2021/03/23 06:47:49;;;;;;;20.90;13.87;;;;;;;5.89;83.03;99574.59;4901657;28;102353;-91
2021/03/23 06:50:32;;;;;;;19.30;12.07;;;;;;;5.88;83.08;99578.97;4910733;28;102694;-92
2021/03/23 06:53:14;;;;;;;19.60;13.23;;;;;;;5.99;82.52;99576.78;4913881;28;101675;-92
2021/03/23 06:55:52;;;;;;;;;;;;;;;;;;;;;
2021/03/23 06:58:32;;;;;;;24.70;16.00;;;;;;;5.90;82.16;99582.38;4898236;28;104775;-92
2021/03/23 07:01:14;;;;;;;18.53;13.13;;;;;;;6.02;82.05;99581.91;4914332;28;102643;-92
2021/03/23 07:03:46;;;;;;;20.03;11.70;;;;;;;6.00;81.95;99575.88;4911559;28;101648;-91
2021/03/23 07:06:29;;;;;;;23.30;15.07;;;;;;;6.15;81.47;99580.50;4913076;28;102399;-92
2021/03/23 07:09:13;;;;;;;22.13;14.80;;;;;;;6.19;80.84;99581.22;4915627;28;104147;-91
2021/03/23 07:12:06;;;;;;;21.60;15.47;;;;;;;6.08;80.46;99581.66;4915050;28;102575;-92
2021/03/23 07:14:39;;;;;;;22.20;14.53;;;;;;;6.23;80.97;99591.53;4897104;28;101777;-93
2021/03/23 07:17:29;;;;;;;23.47;15.00;;;;;;;6.13;80.97;99595.44;4915591;28;101647;-91
2021/03/23 07:20:03;;;;;;;18.83;13.73;;;;;;;6.19;81.18;99595.22;4937424;28;102803;-91
2021/03/23 07:22:45;;;;;;;24.27;15.40;;;;;;;6.24;80.15;99598.50;4966526;28;102437;-91
2021/03/23 07:25:34;;;;;;;20.23;12.63;;;;;;;6.35;80.56;99608.53;4952026;28;101614;-92
2021/03/23 07:28:28;;;;;;;21.53;14.63;;;;;;;6.28;80.32;99594.84;4971482;23;102841;-86
2021/03/23 07:31:13;;;;;;;25.20;15.73;;;;;;;6.43;80.42;99601.22;4921421;28;103105;-90
2021/03/23 07:33:57;;;;;;;22.43;16.30;;;;;;;6.38;80.22;99609.28;4930619;28;102507;-91
2021/03/23 07:36:29;;;;;;;24.73;16.30;;;;;;;6.43;80.44;99592.50;4940169;28;101725;-92
2021/03/23 07:39:22;;;;;;;20.10;13.90;;;;;;;6.60;79.99;99611.00;4942699;28;101829;-94
2021/03/23 07:41:58;;;;;;;23.27;13.63;;;;;;;6.59;79.58;99601.44;4946960;28;102537;-92
2021/03/23 07:44:37;;;;;;;25.67;16.33;;;;;;;6.62;79.14;99606.56;4929739;28;102496;-93
2021/03/23 07:47:17;;;;;;;26.13;16.60;;;;;;;6.58;79.44;99607.59;4946667;28;101634;-92
2021/03/23 07:49:48;;;;;;;23.20;16.27;;;;;;;6.50;79.96;99614.94;4938716;28;101770;-91
2021/03/23 07:52:22;;;;;;;20.30;14.17;;;;;;;6.69;79.72;99608.84;4948921;28;102611;-89
2021/03/23 07:54:57;;;;;;;27.60;15.53;;;;;;;6.68;79.84;99608.94;4947887;28;102414;-92
2021/03/23 07:57:52;;;;;;;24.17;15.93;;;;;;;6.79;78.86;99609.34;4944439;28;101791;-93
2021/03/23 08:00:45;;;;;;;23.63;16.43;;;;;;;6.91;78.41;99617.53;4945896;28;101704;-92
2021/03/23 08:03:43;;;;;;;26.70;18.03;;;;;;;7.03;77.80;99616.16;4945964;28;102763;-93
2021/03/23 08:06:21;;;;;;;20.67;14.73;;;;;;;6.92;78.92;99626.28;4942990;28;104125;-92
2021/03/23 08:09:17;;;;;;;27.37;17.90;;;;;;;6.85;78.93;99622.19;4943186;28;101646;-91
2021/03/23 08:11:54;;;;;;;25.83;17.47;;;;;;;6.92;78.52;99623.63;4941999;28;101766;-89
2021/03/23 08:14:41;;;;;;;27.83;17.13;;;;;;;6.92;78.52;99616.63;4938730;28;103518;-91
2021/03/23 08:17:27;;;;;;;27.00;18.27;;;;;;;7.10;77.31;99617.59;4943091;28;102597;-92
2021/03/23 08:20:35;;;;;;;22.17;15.93;;;;;;;7.15;78.49;99623.50;4941971;28;101667;-91
2021/03/23 08:23:22;;;;;;;23.47;16.73;;;;;;;6.99;77.42;99625.06;4941160;28;102304;-89
2021/03/23 08:26:00;;;;;;;31.57;21.30;;;;;;;7.28;76.58;99627.28;4942075;28;102750;-91
2021/03/23 08:28:38;;;;;;;25.10;16.63;;;;;;;7.48;76.76;99619.38;4940683;28;102537;-90
2021/03/23 08:31:32;;;;;;;19.77;14.77;;;;;;;7.66;76.67;99627.34;4941417;28;101660;-90
2021/03/23 08:34:16;;;;;;;22.50;16.77;;;;;;;7.83;75.70;99609.00;4955592;28;101794;-89
2021/03/23 08:37:30;;;;;;;25.60;19.13;;;;;;;7.72;74.82;99611.28;4940564;28;102212;-89
2021/03/23 08:40:09;;;;;;;27.73;18.43;;;;;;;7.73;75.86;99619.09;4931327;28;102069;-90
2021/03/23 08:42:39;;;;;;;25.77;17.10;;;;;;;7.98;75.00;99624.91;4921201;28;101795;-87
2021/03/23 08:45:19;;;;;;;23.77;16.90;;;;;;;8.13;74.27;99618.06;4939966;28;101784;-89
2021/03/23 08:47:50;;;;;;;25.83;18.50;;;;;;;7.84;73.83;99622.06;4953155;28;105904;-83
2021/03/23 08:50:23;;;;;;;25.73;18.37;;;;;;;7.82;74.33;99623.94;4953386;28;104071;-89
2021/03/23 08:52:55;;;;;;;21.90;16.67;;;;;;;8.00;73.91;99628.31;4944758;28;101751;-86
2021/03/23 08:55:51;;;;;;;25.67;18.43;;;;;;;8.09;72.77;99633.16;4946630;28;101723;-87
2021/03/23 08:58:40;;;;;;;26.77;17.33;;;;;;;8.07;74.10;99626.25;4886604;28;102575;-87
2021/03/23 09:01:36;;;;;;;20.03;16.13;;;;;;;8.29;71.63;99631.38;4910999;28;102543;-85
2021/03/23 09:04:27;;;;;;;19.33;14.07;;;;;;;8.55;73.55;99637.09;4906306;28;101871;-86
2021/03/23 09:06:58;;;;;;;26.50;16.97;;;;;;;8.07;71.47;99637.66;4889970;28;102508;-87
2021/03/23 09:09:49;;;;;;;22.20;17.87;;;;;;;8.12;72.16;99637.41;4996867;23;102945;-93
2021/03/23 09:12:39;;;;;;;28.10;18.57;;;;;;;7.99;72.50;99637.16;5082066;23;103664;-85
2021/03/23 09:15:22;;;;;;;21.33;14.13;;;;;;;8.24;71.74;99641.25;5041305;23;103889;-86
2021/03/23 09:21:06;;;;;;;17.27;13.30;;;;;;;8.23;70.70;99645.66;4831252;28;104062;-85
2021/03/23 09:23:50;;;;;;;20.93;15.90;;;;;;;8.50;70.98;99632.97;5443413;23;103933;-85
2021/03/23 09:30:04;;;;;;;19.33;14.73;;;;;;;8.89;69.86;99635.41;4930731;23;101939;-88
2021/03/23 09:35:54;;;;;;;16.93;11.30;;;;;;;8.15;66.51;99632.00;5907498;23;104188;31
2021/03/23 09:41:35;;;;;;;19.27;12.13;;;;;;;9.17;66.22;99619.88;4864400;29;102856;-83
2021/03/23 09:50:34;;;;;;;14.20;11.37;;;;;;;9.27;64.02;99610.53;4921333;28;101489;-80
2021/03/23 11:03:47;;;;;;;11.33;8.20;;;;;;;9.62;57.31;99612.16;5537334;23;105348;31
2021/03/23 11:06:32;;;;;;;14.53;10.70;;;;;;;9.60;61.28;99603.47;5374230;23;104426;-78
2021/03/23 11:09:00;;;;;;;13.13;10.17;;;;;;;10.11;61.38;99601.50;4896665;28;102444;-79
2021/03/23 11:11:30;;;;;;;17.47;13.63;;;;;;;9.29;62.81;99603.41;4896306;28;102689;-80
2021/03/23 11:13:57;;;;;;;18.70;14.43;;;;;;;9.28;62.28;99601.69;4881719;28;102571;-79
2021/03/23 11:16:28;;;;;;;14.97;11.93;;;;;;;9.56;62.28;99596.66;4885957;28;102930;-80
2021/03/23 11:19:00;;;;;;;14.53;11.27;;;;;;;9.97;59.83;99606.72;4891772;28;102682;-79
2021/03/23 11:21:34;;;;;;;18.27;11.27;;;;;;;9.92;58.14;99599.06;4885174;28;102345;-78
2021/03/23 11:24:01;;;;;;;10.57;7.83;;;;;;;10.22;58.27;99600.00;4895710;28;102244;-79
2021/03/23 12:05:16;;;;;;;7.20;6.50;;;;;;;8.76;56.81;99593.00;5950748;23;104515;31
2021/03/23 12:10:54;;;;;;;9.50;7.90;;;;;;;9.17;58.84;99589.09;5975571;23;104636;31
2021/03/23 12:13:28;;;;;;;10.50;8.03;;;;;;;9.96;57.67;99597.97;4869208;28;104849;-80
2021/03/23 12:16:02;;;;;;;10.53;7.37;;;;;;;10.03;55.94;99598.47;4913972;23;102934;-81
2021/03/23 12:18:32;;;;;;;13.63;8.83;;;;;;;9.90;56.11;99601.81;4880136;28;102812;-80
2021/03/23 12:21:00;;;;;;;11.10;7.60;;;;;;;9.13;55.32;99597.22;4890667;28;102886;-80
2021/03/23 12:23:29;;;;;;;8.17;6.73;;;;;;;9.55;57.74;99588.81;4876458;28;103716;-79
2021/03/23 12:25:59;;;;;;;9.80;7.63;;;;;;;9.96;55.93;99595.34;4888385;28;102631;-79
2021/03/23 12:28:26;;;;;;;8.50;7.20;;;;;;;10.22;56.08;99585.94;4892693;28;102644;-80
2021/03/23 12:30:54;;;;;;;7.93;6.20;;;;;;;10.56;55.50;99583.06;4886993;28;102793;-80
2021/03/23 12:33:22;;;;;;;8.07;7.27;;;;;;;10.01;55.22;99581.88;4890694;28;103061;-78
2021/03/23 12:36:03;;;;;;;8.33;5.93;;;;;;;10.00;54.76;99585.44;4873892;28;103326;-80
2021/03/23 12:38:32;;;;;;;9.97;7.20;;;;;;;9.40;56.25;99579.97;4878226;28;102780;-82
2021/03/23 12:40:59;;;;;;;10.73;7.27;;;;;;;10.10;56.70;99578.72;4881289;28;103771;-80
2021/03/23 12:43:27;;;;;;;8.53;7.20;;;;;;;10.12;55.38;99568.91;4878911;28;103100;-78
2021/03/23 12:45:56;;;;;;;6.30;5.63;;;;;;;10.21;54.23;99578.97;4868420;28;103393;-77
2021/03/23 12:48:24;;;;;;;7.23;5.70;;;;;;;10.32;53.92;99577.44;4856253;28;102935;-79
2021/03/23 12:50:52;;;;;;;9.80;7.20;;;;;;;10.16;54.91;99575.75;4887650;28;103114;-79
2021/03/23 12:53:28;;;;;;;9.57;7.30;;;;;;;9.74;54.90;99578.97;5357799;23;104571;31
2021/03/23 12:55:57;;;;;;;8.77;6.20;;;;;;;9.81;55.61;99567.13;4912571;28;103380;-81
2021/03/23 12:58:30;;;;;;;9.10;7.57;;;;;;;10.03;56.06;99564.13;4962006;23;104975;-79
2021/03/23 13:04:00;;;;;;;10.27;7.63;;;;;;;10.29;54.70;99547.69;5383258;23;103983;-81
2021/03/23 13:06:35;;;;;;;9.10;7.33;;;;;;;10.40;55.31;99547.94;4920389;28;102362;-78
2021/03/23 13:09:03;;;;;;;11.73;9.77;;;;;;;9.53;55.79;99554.63;4946061;23;103592;-81
2021/03/23 13:11:32;;;;;;;9.77;8.67;;;;;;;9.77;57.46;99547.13;4895053;28;102583;-80
2021/03/23 13:14:02;;;;;;;10.80;8.67;;;;;;;9.91;55.93;99545.41;4898117;28;104897;-78
2021/03/23 13:16:31;;;;;;;10.57;8.73;;;;;;;10.06;56.45;99548.13;4905837;28;102737;-79
2021/03/23 13:19:00;;;;;;;11.37;9.53;;;;;;;10.15;55.88;99539.72;4888921;28;102548;-79
2021/03/23 13:21:29;;;;;;;11.83;8.43;;;;;;;9.55;55.59;99551.88;4906167;28;102638;-79
2021/03/23 13:24:00;;;;;;;10.17;8.10;;;;;;;9.79;55.73;99540.84;4946658;23;102908;-80
2021/03/23 13:32:59;;;;;;;9.07;6.87;;;;;;;10.12;55.61;99532.78;5850334;23;105130;-79
2021/03/23 13:38:57;;;;;;;7.70;6.53;;;;;;;10.21;55.72;99539.38;5457830;23;104577;31
2021/03/23 13:41:25;;;;;;;7.17;6.23;;;;;;;10.58;54.75;99536.28;4892922;28;103215;-81
2021/03/23 13:43:56;;;;;;;6.87;5.70;;;;;;;10.64;54.80;99535.91;4905359;28;102828;-80
2021/03/23 13:46:31;;;;;;;8.67;7.77;;;;;;;9.75;54.83;99544.56;5182812;23;104173;-78
2021/03/23 13:49:03;;;;;;;8.17;6.73;;;;;;;10.47;55.55;99538.69;4897423;28;102525;-80
2021/03/23 13:51:32;;;;;;;8.90;7.37;;;;;;;10.86;54.56;99536.31;4905073;28;102526;-80
2021/03/23 13:54:00;;;;;;;10.37;7.93;;;;;;;10.81;53.93;99533.09;4893320;28;103916;-78
2021/03/23 13:56:28;;;;;;;11.57;8.93;;;;;;;10.37;54.05;99537.53;4887792;28;105771;-78
2021/03/23 13:58:56;;;;;;;11.27;9.10;;;;;;;9.49;56.03;99533.78;4887406;28;103016;-78
2021/03/23 14:01:23;;;;;;;11.70;8.97;;;;;;;9.77;56.44;99529.50;4893549;28;103167;-79
2021/03/23 14:03:50;;;;;;;10.10;7.93;;;;;;;10.23;54.95;99524.28;4901844;28;104227;-81
2021/03/23 14:06:22;;;;;;;11.97;8.83;;;;;;;9.82;55.37;99523.97;4909010;28;104164;-79
2021/03/23 14:08:50;;;;;;;10.43;9.17;;;;;;;9.52;55.01;99515.97;4887610;28;103016;-79
2021/03/23 14:11:20;;;;;;;11.30;8.90;;;;;;;9.94;55.92;99522.44;4892790;28;103052;-78
2021/03/23 14:13:48;;;;;;;11.77;8.53;;;;;;;10.43;55.02;99518.69;4894336;28;106326;-79
2021/03/23 14:16:16;;;;;;;10.47;9.03;;;;;;;10.16;54.67;99513.22;4902965;28;103887;-81
2021/03/23 14:18:43;;;;;;;12.47;10.00;;;;;;;10.67;55.50;99505.78;4913779;28;103026;-82
2021/03/23 14:21:16;;;;;;;12.17;8.97;;;;;;;10.49;54.05;99510.41;4899237;28;103032;-79
2021/03/23 14:23:47;;;;;;;12.80;9.40;;;;;;;9.99;56.10;99509.81;4884280;28;103381;-80
2021/03/23 14:26:15;;;;;;;9.17;7.47;;;;;;;10.57;55.77;99508.16;4848543;28;105502;-80
2021/03/23 14:28:50;;;;;;;9.27;8.03;;;;;;;10.97;55.40;99499.53;4880221;28;102961;-80
2021/03/23 14:31:19;;;;;;;14.17;11.23;;;;;;;10.30;55.55;99507.16;4893287;28;102908;-78
2021/03/23 14:33:47;;;;;;;13.70;10.37;;;;;;;9.82;55.81;99508.16;4907018;28;103866;-79
2021/03/23 14:36:15;;;;;;;12.10;10.03;;;;;;;9.94;56.99;99501.31;4893413;28;103979;-79
2021/03/23 14:38:44;;;;;;;13.57;11.13;;;;;;;9.99;55.70;99501.91;4883210;28;102668;-80
2021/03/23 14:41:17;;;;;;;13.37;10.40;;;;;;;9.82;55.93;99498.41;4889334;28;102758;-79
2021/03/23 14:43:45;;;;;;;13.57;10.53;;;;;;;9.64;58.02;99499.47;4874853;28;104039;-78
2021/03/23 14:46:17;;;;;;;14.40;11.10;;;;;;;9.50;56.92;99499.38;4869226;28;105079;-79